createdAt,value
2023-02-23T00:01:02.168Z,97866.97
2023-02-23T00:04:06.962Z,97871.78
2023-02-23T00:07:10.304Z,97868.28
2023-02-23T00:10:18.287Z,97863.69
2023-02-23T00:13:20.935Z,97873.31
2023-02-23T00:16:26.063Z,97854.81
2023-02-23T00:19:33.163Z,97853.47
2023-02-23T00:22:35.951Z,97859.06
2023-02-23T00:25:39.839Z,97853.19
2023-02-23T00:28:44.415Z,97849.97
2023-02-23T00:31:47.736Z,97854.81
2023-02-23T00:34:52.350Z,97853.19
2023-02-23T00:37:55.047Z,97856.44
2023-02-23T00:40:57.663Z,97854.81
2023-02-23T00:44:01.912Z,97859.91
2023-02-23T00:47:04.655Z,97855.66
2023-02-23T00:50:12.876Z,97856.50
2023-02-23T00:53:16.394Z,97859.66
2023-02-23T00:56:19.004Z,97853.78
2023-02-23T00:59:21.742Z,97851.66
2023-02-23T01:02:25.140Z,97848.69
2023-02-23T01:05:29.204Z,97847.91
2023-02-23T01:08:32.324Z,97847.91
2023-02-23T01:11:35.253Z,97849.53
2023-02-23T01:14:38.309Z,97845.03
2023-02-23T01:17:41.163Z,97842.88
2023-02-23T01:20:46.323Z,97842.34
2023-02-23T01:23:49.654Z,97848.53
2023-02-23T01:26:52.370Z,97847.72
2023-02-23T01:29:55.438Z,97850.16
2023-02-23T01:32:58.159Z,97848.28
2023-02-23T01:36:02.255Z,97843.97
2023-02-23T01:39:07.675Z,97843.69
2023-02-23T01:42:13.818Z,97835.66
2023-02-23T01:45:24.799Z,97840.44
2023-02-23T01:48:32.606Z,97838.56
2023-02-23T01:51:42.965Z,97836.97
2023-02-23T01:54:50.544Z,97832.41
2023-02-23T01:57:57.160Z,97829.19
2023-02-23T02:01:02.549Z,97827.03
2023-02-23T02:04:06.578Z,97827.28
2023-02-23T02:07:11.495Z,97820.63
2023-02-23T02:10:33.808Z,97825.25
2023-02-23T02:13:37.828Z,97820.16
2023-02-23T02:17:03.517Z,97824.72
2023-02-23T02:20:52.376Z,97817.00
2023-02-23T02:24:22.007Z,97820.19
2023-02-23T02:27:43.406Z,97814.28
2023-02-23T02:31:30.203Z,97809.75
2023-02-23T02:35:10.124Z,97812.66
2023-02-23T02:38:25.311Z,97815.34
2023-02-23T02:41:36.931Z,97817.22
2023-02-23T02:44:49.548Z,97812.09
2023-02-23T02:47:59.386Z,97806.75
2023-02-23T02:51:10.035Z,97805.66
2023-02-23T02:54:22.119Z,97802.16
2023-02-23T02:57:28.740Z,97797.06
2023-02-23T03:00:54.991Z,97796.00
2023-02-23T03:04:17.443Z,97793.31
2023-02-23T03:07:45.287Z,97798.94
2023-02-23T03:11:17.320Z,97801.09
2023-02-23T03:14:47.319Z,97801.31
2023-02-23T03:18:15.637Z,97799.97
2023-02-23T03:21:44.473Z,97796.25
2023-02-23T03:25:13.422Z,97795.47
2023-02-23T03:28:37.736Z,97798.94
2023-02-23T03:32:06.796Z,97799.22
2023-02-23T03:35:34.149Z,97810.44
2023-02-23T03:38:59.620Z,97801.88
2023-02-23T03:42:23.858Z,97810.16
2023-02-23T03:45:47.876Z,97805.63
2023-02-23T03:49:12.046Z,97807.22
2023-02-23T03:52:35.730Z,97800.53
2023-02-23T03:56:01.143Z,97800.81
2023-02-23T03:59:24.300Z,97807.00
2023-02-23T04:02:47.915Z,97799.00
2023-02-23T04:06:11.601Z,97808.84
2023-02-23T04:09:32.457Z,97813.69
2023-02-23T04:12:56.169Z,97808.38
2023-02-23T04:16:03.644Z,97807.31
2023-02-23T04:19:07.822Z,97808.91
2023-02-23T04:22:10.499Z,97809.97
2023-02-23T04:25:17.234Z,97815.59
2023-02-23T04:28:20.562Z,97810.22
2023-02-23T04:31:25.131Z,97813.16
2023-02-23T04:34:29.539Z,97814.22
2023-02-23T04:37:32.142Z,97818.78
2023-02-23T04:40:35.308Z,97815.84
2023-02-23T04:43:38.099Z,97819.56
2023-02-23T04:46:40.778Z,97816.88
2023-02-23T04:49:45.508Z,97812.34
2023-02-23T04:52:48.707Z,97815.03
2023-02-23T04:55:51.703Z,97813.16
2023-02-23T04:58:54.373Z,97822.56
2023-02-23T05:01:57.028Z,97823.34
2023-02-23T05:05:01.061Z,97821.78
2023-02-23T05:08:03.766Z,97818.88
2023-02-23T05:11:07.618Z,97822.88
2023-02-23T05:14:10.677Z,97823.13
2023-02-23T05:17:13.532Z,97820.19
2023-02-23T05:20:17.552Z,97817.53
2023-02-23T05:23:20.317Z,97817.78
2023-02-23T05:26:23.049Z,97821.81
2023-02-23T05:29:25.774Z,97819.91
2023-02-23T05:32:28.575Z,97819.63
2023-02-23T05:35:32.899Z,97824.75
2023-02-23T05:38:36.155Z,97818.56
2023-02-23T05:41:39.238Z,97831.16
2023-02-23T05:44:41.857Z,97834.63
2023-02-23T05:47:44.468Z,97826.06
2023-02-23T05:50:48.464Z,97830.13
2023-02-23T05:53:51.267Z,97828.22
2023-02-23T05:56:54.077Z,97829.31
2023-02-23T05:59:56.728Z,97826.88
2023-02-23T06:02:59.396Z,97825.00
2023-02-23T06:06:03.536Z,97825.28
2023-02-23T06:09:06.204Z,97824.75
2023-02-23T06:12:10.113Z,97827.16
2023-02-23T06:15:12.883Z,97827.16
2023-02-23T06:18:15.468Z,97836.28
2023-02-23T06:21:19.733Z,97844.84
2023-02-23T06:24:23.693Z,97836.28
2023-02-23T06:27:26.858Z,97841.91
2023-02-23T06:30:29.635Z,97836.28
2023-02-23T06:33:32.261Z,97840.53
2023-02-23T06:36:36.532Z,97847.50
2023-02-23T06:39:39.142Z,97842.13
2023-02-23T06:42:41.826Z,97846.44
2023-02-23T06:45:44.476Z,97855.78
2023-02-23T06:48:47.336Z,97852.59
2023-02-23T06:51:51.653Z,97852.06
2023-02-23T06:54:54.406Z,97857.41
2023-02-23T06:57:57.376Z,97858.22
2023-02-23T07:01:00.386Z,97862.47
2023-02-23T07:04:03.179Z,97866.47
2023-02-23T07:07:07.480Z,97869.13
2023-02-23T07:10:11.803Z,97874.50
2023-02-23T07:13:14.512Z,97872.63
2023-02-23T07:16:17.219Z,97877.16
2023-02-23T07:19:19.879Z,97879.78
2023-02-23T07:22:25.305Z,97882.75
2023-02-23T07:25:27.966Z,97883.03
2023-02-23T07:28:30.611Z,97883.00
2023-02-23T07:31:33.347Z,97888.06
2023-02-23T07:34:37.062Z,97888.56
2023-02-23T07:37:42.079Z,97889.63
2023-02-23T07:40:44.700Z,97890.09
2023-02-23T07:43:47.465Z,97899.47
2023-02-23T07:46:50.569Z,97894.91
2023-02-23T07:49:53.190Z,97892.69
2023-02-23T07:52:57.233Z,97892.13
2023-02-23T07:56:00.739Z,97899.59
2023-02-23T07:59:03.631Z,97888.88
2023-02-23T08:02:07.014Z,97894.22
2023-02-23T08:05:10.029Z,97897.41
2023-02-23T08:08:14.126Z,97901.13
2023-02-23T08:11:17.211Z,97897.66
2023-02-23T08:14:23.569Z,97895.78
2023-02-23T08:17:27.437Z,97903.78
2023-02-23T08:20:30.807Z,97898.41
2023-02-23T08:23:35.579Z,97908.00
2023-02-23T08:26:38.737Z,97899.13
2023-02-23T08:29:41.417Z,97901.25
2023-02-23T08:32:44.017Z,97905.22
2023-02-23T08:35:46.854Z,97901.72
2023-02-23T08:38:51.152Z,97901.41
2023-02-23T08:41:55.605Z,97900.53
2023-02-23T08:44:59.163Z,97901.22
2023-02-23T08:48:01.806Z,97903.06
2023-02-23T08:51:04.590Z,97903.03
2023-02-23T08:54:14.313Z,97903.53
2023-02-23T08:57:17.600Z,97902.19
2023-02-23T09:00:21.584Z,97903.25
2023-02-23T09:03:25.845Z,97909.94
2023-02-23T09:06:28.938Z,97913.97
2023-02-23T09:09:34.135Z,97909.84
2023-02-23T09:12:36.769Z,97917.34
2023-02-23T09:15:40.201Z,97906.56
2023-02-23T09:18:43.266Z,97908.63
2023-02-23T09:21:45.968Z,97910.41
2023-02-23T09:24:50.026Z,97915.69
2023-02-23T09:27:53.914Z,97910.13
2023-02-23T09:30:56.568Z,97905.13
2023-02-23T09:34:00.286Z,97907.06
2023-02-23T09:37:03.550Z,97912.34
2023-02-23T09:40:09.895Z,97905.31
2023-02-23T09:43:16.313Z,97906.25
2023-02-23T09:46:29.458Z,97908.16
2023-02-23T09:49:38.349Z,97908.00
2023-02-23T09:52:44.968Z,97901.53
2023-02-23T09:55:51.372Z,97905.69
2023-02-23T09:58:54.384Z,97907.28
2023-02-23T10:02:05.551Z,97899.44
2023-02-23T10:05:11.775Z,97903.94
2023-02-23T10:08:26.004Z,97902.56
2023-02-23T10:11:39.839Z,97910.75
2023-02-23T10:14:59.419Z,97902.81
2023-02-23T10:18:13.154Z,97897.28
2023-02-23T10:21:19.860Z,97899.88
2023-02-23T10:24:25.538Z,97907.00
2023-02-23T10:27:39.156Z,97892.69
2023-02-23T10:30:42.269Z,97902.28
2023-02-23T10:33:44.911Z,97899.06
2023-02-23T10:36:53.394Z,97894.91
2023-02-23T10:39:56.164Z,97900.41
2023-02-23T10:43:02.408Z,97896.41
2023-02-23T10:46:07.028Z,97907.91
2023-02-23T10:49:18.982Z,97908.91
2023-02-23T10:52:31.090Z,97912.47
2023-02-23T10:55:34.442Z,97907.84
2023-02-23T10:58:46.387Z,97910.88
2023-02-23T11:02:01.541Z,97909.41
2023-02-23T11:05:07.210Z,97909.41
2023-02-23T11:08:20.657Z,97912.91
2023-02-23T11:11:28.706Z,97904.81
2023-02-23T11:14:33.169Z,97891.03
2023-02-23T11:17:38.754Z,97895.28
2023-02-23T11:20:44.301Z,97895.91
2023-02-23T11:23:47.104Z,97887.16
2023-02-23T11:26:52.170Z,97889.69
2023-02-23T11:29:59.587Z,97884.28
2023-02-23T11:33:11.089Z,97873.97
2023-02-23T11:36:26.512Z,97867.72
2023-02-23T11:39:29.261Z,97862.66
2023-02-23T11:42:33.919Z,97857.44
2023-02-23T11:45:47.473Z,97856.69
2023-02-23T11:48:53.965Z,97852.69
2023-02-23T11:51:59.374Z,97846.50
2023-02-23T11:55:06.555Z,97845.22
2023-02-23T11:58:24.138Z,97844.91
2023-02-23T12:01:41.787Z,97846.34
2023-02-23T12:04:47.545Z,97844.13
2023-02-23T12:07:56.789Z,97842.19
2023-02-23T12:11:03.803Z,97839.97
2023-02-23T12:14:13.523Z,97831.22
2023-02-23T12:17:23.018Z,97835.53
2023-02-23T12:20:27.865Z,97834.44
2023-02-23T12:23:34.846Z,97826.59
2023-02-23T12:26:45.789Z,97824.28
2023-02-23T12:30:03.114Z,97835.13
2023-02-23T12:33:13.096Z,97822.19
2023-02-23T12:36:26.040Z,97831.38
2023-02-23T12:39:33.078Z,97828.97
2023-02-23T12:42:41.506Z,97826.91
2023-02-23T12:45:47.391Z,97826.38
2023-02-23T12:49:01.458Z,97822.31
2023-02-23T12:52:11.461Z,97820.28
2023-02-23T12:55:15.372Z,97829.44
2023-02-23T12:58:25.441Z,97819.97
2023-02-23T13:01:32.885Z,97821.50
2023-02-23T13:04:53.559Z,97825.03
2023-02-23T13:08:13.468Z,97820.59
2023-02-23T13:11:28.693Z,97819.41
2023-02-23T13:14:39.088Z,97827.25
2023-02-23T13:17:48.018Z,97825.88
2023-02-23T13:20:56.630Z,97823.91
2023-02-23T13:24:05.145Z,97826.91
2023-02-23T13:27:16.328Z,97827.81
2023-02-23T13:30:20.728Z,97825.03
2023-02-23T13:33:41.870Z,97820.25
2023-02-23T13:36:50.394Z,97823.38
2023-02-23T13:40:09.397Z,97817.97
2023-02-23T13:43:22.985Z,97821.66
2023-02-23T13:46:37.215Z,97810.28
2023-02-23T13:49:47.483Z,97815.06
2023-02-23T13:52:58.343Z,97812.53
2023-02-23T13:56:06.683Z,97812.84
2023-02-23T13:59:16.336Z,97809.78
2023-02-23T14:02:33.139Z,97818.06
2023-02-23T14:05:44.421Z,97809.78
2023-02-23T14:08:54.464Z,97815.25
2023-02-23T14:12:05.331Z,97815.91
2023-02-23T14:15:41.271Z,97817.88
2023-02-23T14:19:07.037Z,97804.09
2023-02-23T14:22:15.392Z,97802.50
2023-02-23T14:25:48.381Z,97809.53
2023-02-23T14:29:17.854Z,97810.97
2023-02-23T14:32:32.334Z,97805.84
2023-02-23T14:35:44.453Z,97809.97
2023-02-23T14:38:48.475Z,97811.16
2023-02-23T14:41:55.511Z,97815.13
2023-02-23T14:45:03.936Z,97812.13
2023-02-23T14:48:09.791Z,97806.25
2023-02-23T14:51:17.839Z,97805.75
2023-02-23T14:54:26.453Z,97810.03
2023-02-23T14:57:30.417Z,97805.63
2023-02-23T15:00:42.198Z,97803.56
2023-02-23T15:04:09.576Z,97802.69
2023-02-23T15:07:18.756Z,97805.38
2023-02-23T15:10:27.013Z,97803.47
2023-02-23T15:13:33.953Z,97808.63
2023-02-23T15:16:37.840Z,97811.41
2023-02-23T15:19:40.994Z,97811.94
2023-02-23T15:22:47.142Z,97809.75
2023-02-23T15:25:51.214Z,97813.06
2023-02-23T15:28:56.271Z,97818.97
2023-02-23T15:32:15.322Z,97819.53
2023-02-23T15:35:18.296Z,97815.03
2023-02-23T15:38:42.251Z,97806.69
2023-02-23T15:41:48.715Z,97815.34
2023-02-23T15:45:04.780Z,97813.84
2023-02-23T15:48:12.149Z,97816.84
2023-02-23T15:51:26.128Z,97820.25
2023-02-23T15:54:32.236Z,97818.66
2023-02-23T15:57:48.507Z,97820.53
2023-02-23T16:00:57.587Z,97831.94
2023-02-23T16:04:03.538Z,97831.81
2023-02-23T16:07:17.822Z,97832.63
2023-02-23T16:10:23.329Z,97827.38
2023-02-23T16:13:27.267Z,97822.88
2023-02-23T16:16:34.965Z,97822.97
2023-02-23T16:19:40.900Z,97829.53
2023-02-23T16:22:46.203Z,97823.75
2023-02-23T16:25:54.197Z,97827.53
2023-02-23T16:28:59.647Z,97827.84
2023-02-23T16:32:04.192Z,97828.13
2023-02-23T16:35:16.860Z,97830.03
2023-02-23T16:38:25.645Z,97827.22
2023-02-23T16:41:31.004Z,97829.91
2023-02-23T16:44:42.896Z,97820.88
2023-02-23T16:47:48.819Z,97829.09
2023-02-23T16:50:51.751Z,97826.28
2023-02-23T16:53:54.454Z,97828.47
2023-02-23T16:56:57.359Z,97827.16
2023-02-23T17:00:00.552Z,97837.00
2023-02-23T17:03:06.681Z,97827.91
2023-02-23T17:06:10.023Z,97830.03
2023-02-23T17:09:13.481Z,97838.75
2023-02-23T17:12:21.717Z,97837.81
2023-02-23T17:15:27.282Z,97835.50
2023-02-23T17:18:33.510Z,97840.38
2023-02-23T17:21:36.113Z,97833.69
2023-02-23T17:24:38.864Z,97842.84
2023-02-23T17:27:41.488Z,97838.03
2023-02-23T17:30:44.815Z,97836.75
2023-02-23T17:33:49.602Z,97849.38
2023-02-23T17:36:52.319Z,97847.78
2023-02-23T17:39:55.003Z,97859.41
2023-02-23T17:43:00.166Z,97851.34
2023-02-23T17:46:03.025Z,97855.41
2023-02-23T17:49:07.197Z,97865.13
2023-02-23T17:52:09.816Z,97858.72
2023-02-23T17:55:12.757Z,97857.16
2023-02-23T17:58:15.592Z,97859.59
2023-02-23T18:01:19.821Z,97862.88
2023-02-23T18:04:24.138Z,97863.16
2023-02-23T18:07:26.891Z,97861.50
2023-02-23T18:10:29.516Z,97861.50
2023-02-23T18:13:33.712Z,97866.59
2023-02-23T18:16:36.493Z,97862.44
2023-02-23T18:19:40.824Z,97858.50
2023-02-23T18:22:43.639Z,97854.81
2023-02-23T18:25:46.716Z,97857.09
2023-02-23T18:28:51.080Z,97864.13
2023-02-23T18:31:53.930Z,97865.53
2023-02-23T18:34:58.015Z,97863.28
2023-02-23T18:38:00.712Z,97854.78
2023-02-23T18:41:03.628Z,97859.97
2023-02-23T18:44:08.391Z,97853.84
2023-02-23T18:47:11.585Z,97854.69
2023-02-23T18:50:18.855Z,97857.50
2023-02-23T18:53:21.478Z,97861.44
2023-02-23T18:56:28.065Z,97860.38
2023-02-23T18:59:30.738Z,97855.34
2023-02-23T19:02:33.349Z,97859.22
2023-02-23T19:05:37.815Z,97861.13
2023-02-23T19:08:41.956Z,97865.22
2023-02-23T19:11:44.635Z,97849.94
2023-02-23T19:14:51.122Z,97859.41
2023-02-23T19:17:54.400Z,97855.38
2023-02-23T19:20:58.489Z,97852.94
2023-02-23T19:24:02.375Z,97851.06
2023-02-23T19:27:05.144Z,97843.53
2023-02-23T19:30:10.305Z,97854.50
2023-02-23T19:33:14.227Z,97848.63
2023-02-23T19:36:20.219Z,97841.84
2023-02-23T19:39:22.851Z,97841.63
2023-02-23T19:42:25.505Z,97841.91
2023-02-23T19:45:28.159Z,97844.81
2023-02-23T19:48:30.780Z,97841.03
2023-02-23T19:51:34.833Z,97842.13
2023-02-23T19:54:37.985Z,97847.66
2023-02-23T19:57:40.796Z,97837.22
2023-02-23T20:00:45.215Z,97846.84
2023-02-23T20:03:55.094Z,97846.31
2023-02-23T20:06:59.076Z,97845.50
2023-02-23T20:10:05.352Z,97848.16
2023-02-23T20:13:08.617Z,97839.38
2023-02-23T20:16:13.572Z,97851.44
2023-02-23T20:19:16.315Z,97848.47
2023-02-23T20:22:20.348Z,97849.31
2023-02-23T20:25:23.458Z,97842.66
2023-02-23T20:28:26.119Z,97841.84
2023-02-23T20:31:31.195Z,97847.28
2023-02-23T20:34:35.637Z,97844.84
2023-02-23T20:37:39.736Z,97852.66
2023-02-23T20:40:42.631Z,97848.91
2023-02-23T20:43:45.984Z,97846.22
2023-02-23T20:46:49.056Z,97852.88
2023-02-23T20:49:51.711Z,97846.16
2023-02-23T20:52:55.952Z,97844.25
2023-02-23T20:55:58.796Z,97842.13
2023-02-23T20:59:02.291Z,97845.03
2023-02-23T21:02:05.397Z,97845.34
2023-02-23T21:05:12.223Z,97836.47
2023-02-23T21:08:16.462Z,97838.09
2023-02-23T21:11:20.525Z,97838.59
2023-02-23T21:14:23.393Z,97831.34
2023-02-23T21:17:26.203Z,97837.53
2023-02-23T21:20:29.671Z,97839.97
2023-02-23T21:23:33.688Z,97836.47
2023-02-23T21:26:36.960Z,97827.13
2023-02-23T21:29:40.512Z,97829.03
2023-02-23T21:32:43.570Z,97826.88
2023-02-23T21:35:46.221Z,97826.88
2023-02-23T21:38:51.316Z,97822.88
2023-02-23T21:41:53.929Z,97824.25
2023-02-23T21:44:56.810Z,97824.53
2023-02-23T21:47:59.435Z,97826.72
2023-02-23T21:51:06.215Z,97828.56
2023-02-23T21:54:10.347Z,97817.03
2023-02-23T21:57:13.231Z,97822.66
2023-02-23T22:00:18.949Z,97817.03
2023-02-23T22:03:26.011Z,97815.56
2023-02-23T22:06:31.350Z,97816.59
2023-02-23T22:09:36.066Z,97810.94
2023-02-23T22:12:38.684Z,97818.69
2023-02-23T22:15:41.315Z,97819.47
2023-02-23T22:18:44.398Z,97825.59
2023-02-23T22:21:48.371Z,97823.16
2023-02-23T22:24:52.336Z,97820.75
2023-02-23T22:27:54.948Z,97816.53
2023-02-23T22:30:57.993Z,97820.84
2023-02-23T22:34:00.749Z,97811.50
2023-02-23T22:37:03.502Z,97822.75
2023-02-23T22:40:14.356Z,97808.53
2023-02-23T22:43:17.033Z,97806.06
2023-02-23T22:46:19.759Z,97810.94
2023-02-23T22:49:22.388Z,97815.50
2023-02-23T22:52:26.677Z,97810.41
2023-02-23T22:55:31.153Z,97802.66
2023-02-23T22:58:33.838Z,97800.22
2023-02-23T23:01:38.410Z,97793.78
2023-02-23T23:04:41.321Z,97790.28
2023-02-23T23:07:46.773Z,97794.03
2023-02-23T23:10:50.958Z,97793.25
2023-02-23T23:13:57.619Z,97796.78
2023-02-23T23:17:00.294Z,97793.56
2023-02-23T23:20:10.614Z,97780.97
2023-02-23T23:23:13.321Z,97782.03
2023-02-23T23:26:20.112Z,97780.41
2023-02-23T23:29:25.721Z,97781.78
2023-02-23T23:32:29.934Z,97773.78
2023-02-23T23:35:34.278Z,97771.38
2023-02-23T23:38:38.520Z,97769.00
2023-02-23T23:41:44.042Z,97769.50
2023-02-23T23:44:46.721Z,97767.91
2023-02-23T23:47:49.333Z,97755.28
2023-02-23T23:50:51.970Z,97764.16
2023-02-23T23:53:54.628Z,97757.75
2023-02-23T23:57:01.238Z,97755.34
